Time;durP1;ratioP1;P1;durP2;ratioP2;P2;SDS_P1;SDS_P2;PMS_P1;PMS_P2;Temp;Humidity;BMP_temperature;BMP_pressure;BME280_temperature;BME280_humidity;BME280_pressure;Samples;Min_cycle;Max_cycle;Signal;HPM_P1;HPM_P2
2023/07/12 00:02:08;;;;;;;4.83;4.53;;;22.80;53.70;;;;;;6294343;28;20247;-80
2023/07/12 00:05:11;;;;;;;5.47;5.07;;;22.70;53.70;;;;;;6282536;28;20284;-79
2023/07/12 00:08:19;;;;;;;5.50;5.13;;;22.60;53.80;;;;;;6288482;28;20236;-82
2023/07/12 00:11:24;;;;;;;4.93;4.80;;;22.60;53.80;;;;;;6275914;28;20286;-81
2023/07/12 00:14:27;;;;;;;5.03;4.73;;;22.50;53.90;;;;;;6295455;28;20796;-79
2023/07/12 00:17:31;;;;;;;6.30;5.10;;;22.50;54.00;;;;;;6305605;28;20239;-79
2023/07/12 00:20:39;;;;;;;5.50;5.20;;;22.50;54.20;;;;;;6281806;28;20332;-80
2023/07/12 00:23:42;;;;;;;5.57;5.17;;;22.40;54.50;;;;;;6291947;28;20518;-76
2023/07/12 00:26:45;;;;;;;5.97;5.40;;;22.40;54.40;;;;;;6285520;28;20732;-78
2023/07/12 00:29:48;;;;;;;5.53;5.20;;;22.50;54.40;;;;;;6291462;28;20328;-79
2023/07/12 00:32:54;;;;;;;5.23;5.03;;;22.40;54.60;;;;;;6299491;28;20314;-78
2023/07/12 00:35:57;;;;;;;5.80;5.40;;;22.30;54.70;;;;;;6291850;28;20237;-81
2023/07/12 00:39:02;;;;;;;5.83;5.57;;;22.40;54.70;;;;;;6287656;28;20744;-79
2023/07/12 00:42:13;;;;;;;5.87;5.57;;;22.40;54.80;;;;;;6291014;28;20700;-80
2023/07/12 00:45:17;;;;;;;5.83;5.30;;;22.40;55.00;;;;;;6296240;28;20325;-79
2023/07/12 00:48:21;;;;;;;5.80;5.50;;;22.40;54.90;;;;;;6288152;28;20368;-78
2023/07/12 00:51:36;;;;;;;5.20;4.90;;;22.30;55.10;;;;;;6273700;28;20233;-80
2023/07/12 00:54:51;;;;;;;6.37;5.97;;;22.30;55.00;;;;;;6281540;28;20249;-81
2023/07/12 00:57:55;;;;;;;5.70;5.30;;;22.30;55.20;;;;;;6283349;28;20263;-79
2023/07/12 01:01:00;;;;;;;5.53;5.13;;;22.30;55.50;;;;;;6292070;28;20235;-79
2023/07/12 01:04:05;;;;;;;5.53;5.13;;;22.20;55.10;;;;;;6299642;28;20248;-79
2023/07/12 01:07:08;;;;;;;5.37;4.97;;;22.10;55.00;;;;;;6278558;28;20241;-80
2023/07/12 01:10:12;;;;;;;5.70;5.40;;;22.10;55.20;;;;;;6294409;28;20248;-79
2023/07/12 01:13:20;;;;;;;5.63;5.30;;;22.10;55.30;;;;;;6291138;28;20244;-80
2023/07/12 01:16:24;;;;;;;5.53;5.10;;;22.10;55.40;;;;;;6290732;28;20267;-80
2023/07/12 01:19:30;;;;;;;6.27;5.77;;;22.00;55.50;;;;;;6287704;28;20240;-78
2023/07/12 01:22:34;;;;;;;6.27;5.80;;;22.00;55.50;;;;;;6294382;28;20324;-79
2023/07/12 01:25:39;;;;;;;5.63;5.13;;;22.00;55.90;;;;;;6297864;28;20229;-78
2023/07/12 01:28:43;;;;;;;6.63;6.07;;;22.00;56.00;;;;;;6292998;28;20242;-81
2023/07/12 01:31:46;;;;;;;5.93;5.70;;;21.90;55.90;;;;;;6281692;28;20241;-77
2023/07/12 01:34:49;;;;;;;5.87;5.57;;;21.90;55.70;;;;;;6285053;28;20235;-78
2023/07/12 01:37:54;;;;;;;5.97;5.57;;;21.90;56.10;;;;;;6301660;28;20256;-80
2023/07/12 01:40:57;;;;;;;7.40;6.50;;;21.90;56.10;;;;;;6293658;28;20245;-80
2023/07/12 01:44:00;;;;;;;6.37;5.87;;;21.90;56.10;;;;;;6299177;28;20243;-79
2023/07/12 01:47:04;;;;;;;12.57;6.00;;;21.90;56.00;;;;;;6303961;28;20355;-81
2023/07/12 01:50:08;;;;;;;6.20;5.77;;;21.90;56.50;;;;;;6304389;28;20288;-79
2023/07/12 01:53:12;;;;;;;6.60;6.00;;;21.90;56.10;;;;;;6301134;28;20237;-82
2023/07/12 01:56:17;;;;;;;6.43;5.93;;;21.90;56.30;;;;;;6282290;28;20251;-81
2023/07/12 01:59:20;;;;;;;5.80;5.50;;;21.80;56.20;;;;;;6299378;28;20273;-79
2023/07/12 02:02:23;;;;;;;5.50;5.23;;;21.80;56.40;;;;;;6285227;28;20302;-77
2023/07/12 02:05:27;;;;;;;6.43;5.93;;;21.70;56.20;;;;;;6298575;28;20240;-81
2023/07/12 02:08:31;;;;;;;5.63;5.33;;;21.70;56.30;;;;;;6281784;28;20230;-79
2023/07/12 02:11:36;;;;;;;6.77;6.23;;;21.70;56.20;;;;;;6289660;28;20909;-78
2023/07/12 02:14:39;;;;;;;6.33;5.83;;;21.70;56.50;;;;;;6315509;28;20251;-80
2023/07/12 02:17:42;;;;;;;6.10;5.80;;;21.70;56.60;;;;;;6297400;28;20246;-80
2023/07/12 02:20:45;;;;;;;7.20;5.83;;;21.60;56.60;;;;;;6287460;28;20237;-78
2023/07/12 02:23:52;;;;;;;6.40;5.90;;;21.60;56.70;;;;;;6294099;28;20390;-81
2023/07/12 02:26:55;;;;;;;6.33;5.83;;;21.50;57.10;;;;;;6298336;28;20771;-80
2023/07/12 02:29:58;;;;;;;6.10;5.80;;;21.50;57.00;;;;;;6292718;28;20328;-79
2023/07/12 02:33:02;;;;;;;5.60;5.10;;;21.50;57.10;;;;;;6296208;28;20233;-82
2023/07/12 02:36:05;;;;;;;5.67;5.10;;;21.50;57.40;;;;;;6297825;28;20286;-80
2023/07/12 02:39:09;;;;;;;6.10;5.63;;;21.50;57.60;;;;;;6316101;28;20244;-82
2023/07/12 02:42:13;;;;;;;6.43;5.97;;;21.50;57.60;;;;;;6290180;28;20322;-79
2023/07/12 02:45:17;;;;;;;6.63;6.03;;;21.50;57.80;;;;;;6290308;28;20241;-80
2023/07/12 02:48:21;;;;;;;7.83;6.57;;;21.50;57.80;;;;;;6280270;28;20256;-78
2023/07/12 02:51:24;;;;;;;6.43;5.93;;;21.50;57.90;;;;;;6307444;28;20237;-83
2023/07/12 02:54:28;;;;;;;6.70;6.10;;;21.60;58.00;;;;;;6306402;28;20242;-81
2023/07/12 02:57:32;;;;;;;6.53;6.13;;;21.60;58.00;;;;;;6282940;28;20234;-79
2023/07/12 03:00:35;;;;;;;6.57;5.97;;;21.60;58.00;;;;;;6320225;28;20299;-79
2023/07/12 03:03:38;;;;;;;6.77;6.13;;;21.60;58.20;;;;;;6306148;28;20233;-81
2023/07/12 03:06:42;;;;;;;6.40;6.00;;;21.70;58.20;;;;;;6312668;28;20233;-82
2023/07/12 03:09:46;;;;;;;8.43;6.70;;;21.60;57.90;;;;;;6283986;28;20234;-79
2023/07/12 03:12:49;;;;;;;6.23;5.87;;;21.70;57.90;;;;;;6310780;28;20257;-80
2023/07/12 03:15:52;;;;;;;7.40;6.80;;;21.70;58.00;;;;;;6290135;28;20229;-80
2023/07/12 03:18:56;;;;;;;6.77;6.37;;;21.70;57.60;;;;;;6305877;28;20255;-77
2023/07/12 03:22:00;;;;;;;6.53;6.13;;;21.70;57.70;;;;;;6291231;28;20323;-81
2023/07/12 03:25:04;;;;;;;6.50;6.10;;;21.70;57.70;;;;;;6289026;28;20810;-80
2023/07/12 03:28:08;;;;;;;6.17;5.87;;;21.70;57.70;;;;;;6305317;28;20367;-79
2023/07/12 03:31:13;;;;;;;7.30;6.70;;;21.70;57.90;;;;;;6285197;28;20640;-77
2023/07/12 03:34:17;;;;;;;8.10;7.40;;;21.70;58.20;;;;;;6282284;28;20242;-80
2023/07/12 03:37:20;;;;;;;7.67;7.27;;;21.70;58.30;;;;;;6291957;28;20238;-79
2023/07/12 03:40:25;;;;;;;9.20;8.40;;;21.70;58.20;;;;;;6278527;28;20292;-78
2023/07/12 03:43:28;;;;;;;7.37;6.87;;;21.70;58.30;;;;;;6282842;28;20242;-83
2023/07/12 03:46:31;;;;;;;7.30;6.70;;;21.70;58.20;;;;;;6280666;28;20316;-79
2023/07/12 03:49:35;;;;;;;11.20;7.97;;;21.80;58.40;;;;;;6283228;28;20237;-78
2023/07/12 03:52:38;;;;;;;7.70;7.10;;;21.90;58.30;;;;;;6297307;28;20736;-79
2023/07/12 03:55:44;;;;;;;8.77;8.13;;;21.90;58.10;;;;;;6280992;28;20303;-78
2023/07/12 03:58:47;;;;;;;8.43;7.73;;;21.90;58.10;;;;;;6295144;28;20317;-77
2023/07/12 04:01:50;;;;;;;8.33;7.73;;;22.00;58.30;;;;;;6285081;28;20237;-79
2023/07/12 04:04:53;;;;;;;8.63;7.80;;;22.00;58.10;;;;;;6293260;28;20650;-81
2023/07/12 04:07:57;;;;;;;8.57;8.03;;;22.10;58.30;;;;;;6275223;28;20287;-77
2023/07/12 04:11:02;;;;;;;9.30;8.70;;;22.10;58.20;;;;;;6280283;28;20927;-79
2023/07/12 04:14:06;;;;;;;8.70;8.00;;;22.20;58.20;;;;;;6280197;28;20364;-79
2023/07/12 04:17:09;;;;;;;8.10;7.60;;;22.20;58.10;;;;;;6289513;28;20352;-79
2023/07/12 04:20:14;;;;;;;10.77;9.07;;;22.30;58.10;;;;;;6280823;28;20240;-78
2023/07/12 04:23:17;;;;;;;13.33;9.20;;;22.40;58.30;;;;;;6291098;28;20266;-80
2023/07/12 04:26:21;;;;;;;9.73;8.90;;;22.50;58.40;;;;;;6262803;28;20264;-78
2023/07/12 04:29:24;;;;;;;9.40;8.67;;;22.50;58.30;;;;;;6282918;28;20242;-80
2023/07/12 04:32:28;;;;;;;9.33;8.53;;;22.50;58.20;;;;;;6272301;28;20747;-77
2023/07/12 04:35:31;;;;;;;9.57;8.87;;;22.50;58.30;;;;;;6292275;28;20241;-77
2023/07/12 04:38:38;;;;;;;10.33;8.83;;;22.60;58.30;;;;;;6282424;28;20646;-79
2023/07/12 04:41:42;;;;;;;9.90;9.10;;;22.60;58.30;;;;;;6286480;28;20237;-79
2023/07/12 04:44:45;;;;;;;9.90;8.93;;;22.60;58.20;;;;;;6275043;28;20632;-79
2023/07/12 04:47:48;;;;;;;10.20;9.20;;;22.60;58.20;;;;;;6295978;28;20241;-80
2023/07/12 04:50:52;;;;;;;11.43;9.63;;;22.60;58.40;;;;;;6284423;28;20241;-79
2023/07/12 04:53:56;;;;;;;10.40;9.60;;;22.70;58.00;;;;;;6276650;28;20230;-81
2023/07/12 04:57:00;;;;;;;10.33;9.43;;;22.70;58.30;;;;;;6284068;28;20275;-79
2023/07/12 05:00:04;;;;;;;8.93;8.33;;;22.70;58.10;;;;;;6287427;28;20230;-79
2023/07/12 05:03:08;;;;;;;10.60;9.60;;;22.80;58.10;;;;;;6290165;28;20229;-75
2023/07/12 05:06:11;;;;;;;9.80;9.03;;;22.70;58.70;;;;;;6282953;28;20248;-79
2023/07/12 05:09:26;;;;;;;10.20;9.40;;;22.80;58.70;;;;;;6280844;28;20225;-76
2023/07/12 05:12:30;;;;;;;12.47;10.20;;;22.80;59.00;;;;;;6288365;28;20244;-76
2023/07/12 05:15:33;;;;;;;10.90;10.00;;;22.90;58.80;;;;;;6280003;28;20615;-79
2023/07/12 05:18:37;;;;;;;10.27;9.37;;;23.00;58.90;;;;;;6285242;28;20249;-77
2023/07/12 05:21:40;;;;;;;11.40;10.50;;;23.00;58.90;;;;;;6288826;28;20289;-78
2023/07/12 05:24:44;;;;;;;12.47;10.77;;;23.10;59.00;;;;;;6298365;28;20676;-79
2023/07/12 05:27:49;;;;;;;11.97;10.77;;;23.10;59.00;;;;;;6288839;28;20308;-77
2023/07/12 05:30:52;;;;;;;12.03;10.87;;;23.20;59.10;;;;;;6278389;28;20246;-78
2023/07/12 05:33:55;;;;;;;11.43;10.53;;;23.30;59.00;;;;;;6272784;28;20303;-77
2023/07/12 05:36:58;;;;;;;12.57;11.47;;;23.30;58.80;;;;;;6284097;28;20273;-76
2023/07/12 05:40:03;;;;;;;14.10;11.80;;;23.30;59.00;;;;;;6268934;28;20737;-78
2023/07/12 05:43:08;;;;;;;12.43;11.23;;;23.40;59.00;;;;;;6277134;28;20623;-80
2023/07/12 05:46:12;;;;;;;12.40;11.03;;;23.40;59.00;;;;;;6283792;28;20486;-78
2023/07/12 05:49:15;;;;;;;12.90;11.70;;;23.50;58.90;;;;;;6275540;28;20888;-79
2023/07/12 05:52:18;;;;;;;13.73;11.27;;;23.50;59.10;;;;;;6293709;28;20254;-79
2023/07/12 05:55:23;;;;;;;11.87;10.40;;;23.60;58.90;;;;;;6283304;28;20232;-79
2023/07/12 05:58:28;;;;;;;12.43;11.17;;;23.60;59.00;;;;;;6292819;28;20241;-82
2023/07/12 06:01:31;;;;;;;11.43;10.50;;;23.60;59.20;;;;;;6281944;28;20678;-81
2023/07/12 06:04:35;;;;;;;13.50;11.13;;;23.70;59.10;;;;;;6293473;28;20245;-80
2023/07/12 06:07:38;;;;;;;10.77;10.03;;;23.70;59.40;;;;;;6283786;28;20243;-81
2023/07/12 06:10:44;;;;;;;11.00;10.00;;;23.80;59.40;;;;;;6289110;28;20245;-78
2023/07/12 06:13:49;;;;;;;13.50;11.07;;;23.80;59.30;;;;;;6294828;28;20260;-79
2023/07/12 06:16:52;;;;;;;11.43;10.33;;;23.80;59.40;;;;;;6291380;28;20717;-79
2023/07/12 06:19:55;;;;;;;10.73;9.73;;;23.80;59.70;;;;;;6277304;28;20244;-79
2023/07/12 06:22:58;;;;;;;11.77;10.87;;;23.80;59.80;;;;;;6278970;28;20651;-80
2023/07/12 06:26:01;;;;;;;11.93;10.53;;;23.80;59.80;;;;;;6297370;28;20233;-78
2023/07/12 06:29:06;;;;;;;14.20;10.30;;;23.80;59.90;;;;;;6294104;28;20842;-81
2023/07/12 06:32:10;;;;;;;21.13;11.80;;;23.80;60.20;;;;;;6281531;28;20278;-79
2023/07/12 06:35:14;;;;;;;10.87;9.77;;;23.90;60.20;;;;;;6276419;28;20320;-79
2023/07/12 06:38:17;;;;;;;13.87;10.10;;;24.00;60.10;;;;;;6280055;28;20406;-80
2023/07/12 06:41:20;;;;;;;13.60;12.27;;;24.40;59.70;;;;;;6275270;28;20236;-81
2023/07/12 06:44:25;;;;;;;11.37;10.27;;;24.90;59.00;;;;;;6277754;28;20236;-82
2023/07/12 06:47:28;;;;;;;10.83;9.70;;;25.20;58.50;;;;;;6289446;28;20239;-78
2023/07/12 06:50:32;;;;;;;10.10;8.70;;;25.60;58.40;;;;;;6294310;28;20234;-77
2023/07/12 06:53:37;;;;;;;9.10;8.40;;;26.10;57.60;;;;;;6295575;28;20859;-77
2023/07/12 06:56:40;;;;;;;11.70;9.17;;;26.40;57.20;;;;;;6286592;28;21481;-78
2023/07/12 06:59:45;;;;;;;9.53;8.73;;;26.70;56.90;;;;;;6283769;28;20233;-76
2023/07/12 07:02:48;;;;;;;12.27;8.53;;;26.80;57.00;;;;;;6281796;28;20302;-78
2023/07/12 07:05:51;;;;;;;9.37;8.30;;;26.90;56.60;;;;;;6273785;28;20249;-78
2023/07/12 07:08:54;;;;;;;8.83;8.03;;;27.00;56.80;;;;;;6278726;28;20229;-76
2023/07/12 07:11:59;;;;;;;10.03;8.40;;;27.20;56.30;;;;;;6288365;28;20324;-76
2023/07/12 07:15:04;;;;;;;9.30;8.40;;;27.20;56.70;;;;;;6288669;28;20237;-78
2023/07/12 07:18:09;;;;;;;8.80;7.93;;;27.30;56.60;;;;;;6290433;28;20877;-75
2023/07/12 07:21:13;;;;;;;9.40;8.67;;;27.40;55.80;;;;;;6289210;28;20241;-75
2023/07/12 07:24:16;;;;;;;9.90;8.43;;;27.10;55.70;;;;;;6286388;28;20229;-75
2023/07/12 07:27:19;;;;;;;11.07;8.37;;;27.10;56.20;;;;;;6284181;28;20304;-75
2023/07/12 07:30:24;;;;;;;10.37;8.60;;;26.70;56.20;;;;;;6292734;28;20232;-79
2023/07/12 07:33:28;;;;;;;9.40;8.50;;;26.50;56.80;;;;;;6279198;28;20241;-78
2023/07/12 07:36:31;;;;;;;9.73;8.70;;;26.10;57.40;;;;;;6287752;28;20245;-79
2023/07/12 07:39:35;;;;;;;10.87;8.27;;;25.90;58.00;;;;;;6301392;28;20291;-82
2023/07/12 07:42:38;;;;;;;8.87;7.97;;;25.90;58.20;;;;;;6281066;28;20236;-83
2023/07/12 07:45:43;;;;;;;10.00;9.30;;;26.10;57.70;;;;;;6311503;28;20309;-79
2023/07/12 07:48:46;;;;;;;11.33;10.07;;;26.20;57.00;;;;;;6303356;28;20256;-80
2023/07/12 07:51:49;;;;;;;9.43;8.60;;;26.20;56.60;;;;;;6281324;28;20249;-79
2023/07/12 07:54:53;;;;;;;9.90;8.90;;;26.20;56.70;;;;;;6303854;28;20237;-80
2023/07/12 07:57:56;;;;;;;13.30;8.67;;;26.30;55.80;;;;;;6282064;28;20258;-80
2023/07/12 08:01:01;;;;;;;10.90;9.80;;;26.10;55.70;;;;;;6290157;28;20241;-80
2023/07/12 08:04:05;;;;;;;13.50;9.33;;;26.00;56.20;;;;;;6273890;28;20253;-82
2023/07/12 08:07:11;;;;;;;11.50;9.53;;;26.20;56.20;;;;;;6274559;28;20779;-81
2023/07/12 08:10:18;;;;;;;10.77;7.90;;;26.20;55.60;;;;;;6251494;28;20249;-79
2023/07/12 08:13:21;;;;;;;8.10;7.50;;;26.00;55.50;;;;;;6265017;28;20231;-81
2023/07/12 08:16:29;;;;;;;8.50;7.90;;;26.00;55.20;;;;;;6266732;28;20229;-80
2023/07/12 08:19:32;;;;;;;8.93;7.67;;;25.60;55.60;;;;;;6263709;28;20265;-81
2023/07/12 08:22:35;;;;;;;7.47;6.87;;;25.40;55.80;;;;;;6270999;28;20897;-81
2023/07/12 08:25:38;;;;;;;7.13;6.63;;;25.50;56.20;;;;;;6267004;28;20234;-79
2023/07/12 08:28:42;;;;;;;7.60;6.73;;;25.60;55.20;;;;;;6266546;28;20415;-82
2023/07/12 08:31:47;;;;;;;6.60;6.20;;;25.60;54.90;;;;;;6255463;28;20243;-81
2023/07/12 08:34:50;;;;;;;6.67;6.13;;;25.50;55.50;;;;;;6256120;28;20261;-80
2023/07/12 08:37:55;;;;;;;5.90;5.60;;;25.60;55.70;;;;;;6246053;28;20314;-80
2023/07/12 08:40:59;;;;;;;6.20;5.80;;;25.50;55.70;;;;;;6261919;28;20329;-83
2023/07/12 08:44:04;;;;;;;6.50;6.00;;;25.60;56.30;;;;;;6252579;28;20742;-81
2023/07/12 08:47:17;;;;;;;5.77;5.37;;;25.60;55.60;;;;;;6263826;28;20284;-82
2023/07/12 08:50:21;;;;;;;5.23;4.83;;;25.60;55.50;;;;;;6249546;28;20232;-81
2023/07/12 08:53:26;;;;;;;5.23;4.63;;;25.60;55.40;;;;;;6255796;28;20237;-80
2023/07/12 08:56:30;;;;;;;5.27;4.77;;;25.50;55.70;;;;;;6282881;28;20372;-79
2023/07/12 08:59:33;;;;;;;5.07;4.67;;;25.30;56.40;;;;;;6249970;28;20308;-82
2023/07/12 09:02:38;;;;;;;5.27;4.97;;;25.30;56.00;;;;;;6242726;28;20333;-81
2023/07/12 09:05:41;;;;;;;4.73;4.53;;;25.30;56.50;;;;;;6255248;28;20702;-80
2023/07/12 09:08:49;;;;;;;5.40;4.33;;;25.30;56.80;;;;;;6259744;28;20779;-79
2023/07/12 09:11:52;;;;;;;4.83;4.60;;;25.30;57.40;;;;;;6254058;28;20313;-79
2023/07/12 09:14:58;;;;;;;5.33;4.83;;;25.50;56.50;;;;;;6260468;28;20238;-80
2023/07/12 09:18:07;;;;;;;4.70;4.47;;;25.60;56.30;;;;;;6253765;28;20317;-80
2023/07/12 09:21:16;;;;;;;5.00;4.57;;;25.60;56.20;;;;;;6242444;28;20239;-81
2023/07/12 09:24:24;;;;;;;4.70;4.50;;;26.00;56.00;;;;;;6250798;28;20359;-82
2023/07/12 09:27:29;;;;;;;4.50;4.13;;;26.00;56.20;;;;;;6261967;28;20597;-79
2023/07/12 09:30:33;;;;;;;4.60;4.30;;;26.20;55.90;;;;;;6263284;28;20709;-80
2023/07/12 09:33:38;;;;;;;4.77;4.47;;;26.20;55.30;;;;;;6257306;28;20243;-81
2023/07/12 09:36:41;;;;;;;5.13;4.43;;;26.20;55.60;;;;;;6249336;28;20246;-79
2023/07/12 09:39:55;;;;;;;4.23;4.03;;;26.20;55.70;;;;;;6254935;28;20237;-81
2023/07/12 09:42:58;;;;;;;8.10;4.40;;;26.40;55.70;;;;;;6264392;28;20271;-80
2023/07/12 09:46:21;;;;;;;3.77;3.67;;;26.50;56.80;;;;;;6256874;28;20722;-83
2023/07/12 09:49:33;;;;;;;4.63;4.43;;;26.10;56.90;;;;;;6263635;28;20222;-83
2023/07/12 09:52:50;;;;;;;4.40;4.17;;;26.20;55.80;;;;;;6274431;28;20253;-81
2023/07/12 09:56:00;;;;;;;3.80;3.60;;;26.20;55.20;;;;;;6251262;28;20761;-79
2023/07/12 09:59:11;;;;;;;3.90;3.70;;;26.10;55.90;;;;;;6279091;28;20318;-84
2023/07/12 10:02:29;;;;;;;3.47;3.37;;;26.50;55.60;;;;;;6274235;28;20242;-81
2023/07/12 10:05:35;;;;;;;3.83;3.67;;;26.60;56.20;;;;;;6257287;28;20225;-81
2023/07/12 10:08:54;;;;;;;4.23;4.03;;;26.60;55.90;;;;;;6266261;28;20718;-81
2023/07/12 10:12:04;;;;;;;4.73;4.43;;;26.70;55.80;;;;;;6262373;28;20253;-83
2023/07/12 10:15:13;;;;;;;4.70;4.40;;;26.90;55.20;;;;;;6243928;28;20388;-80
2023/07/12 10:18:20;;;;;;;3.83;3.63;;;26.80;55.80;;;;;;6268350;28;20278;-82
2023/07/12 10:21:27;;;;;;;3.50;3.27;;;26.70;55.00;;;;;;6253753;28;20260;-83
2023/07/12 10:24:35;;;;;;;5.00;3.27;;;26.40;55.60;;;;;;6262463;28;20628;-80
2023/07/12 10:27:46;;;;;;;3.70;3.30;;;26.40;55.70;;;;;;6268911;28;20694;-83
2023/07/12 10:30:51;;;;;;;3.73;3.60;;;26.20;55.70;;;;;;6262370;28;20230;-81
2023/07/12 10:33:59;;;;;;;3.00;2.87;;;26.40;56.00;;;;;;6260203;28;20238;-81
2023/07/12 10:37:13;;;;;;;3.23;2.93;;;26.30;55.90;;;;;;6253625;28;20238;-82
2023/07/12 10:40:20;;;;;;;3.40;3.30;;;26.20;55.50;;;;;;6257167;28;20296;-81
2023/07/12 10:43:31;;;;;;;3.00;3.00;;;26.20;56.10;;;;;;6265559;28;20234;-81
2023/07/12 10:46:38;;;;;;;3.93;3.50;;;26.20;55.30;;;;;;6275080;28;20252;-79
2023/07/12 10:49:44;;;;;;;3.37;3.17;;;26.40;55.70;;;;;;6267966;28;20237;-81
2023/07/12 10:53:02;;;;;;;2.77;2.77;;;26.40;55.70;;;;;;6270803;28;20232;-82
2023/07/12 10:56:19;;;;;;;3.10;3.00;;;26.20;55.80;;;;;;6279845;28;20241;-81
2023/07/12 10:59:45;;;;;;;3.57;3.30;;;26.30;56.00;;;;;;6259257;28;20245;-80
2023/07/12 11:03:00;;;;;;;2.60;2.50;;;26.50;54.80;;;;;;6255233;28;20317;-83
2023/07/12 11:06:22;;;;;;;3.40;3.07;;;26.80;54.60;;;;;;6278202;28;20237;-82
2023/07/12 11:09:46;;;;;;;2.70;2.60;;;27.10;53.60;;;;;;6257569;28;20291;-81
2023/07/12 11:13:03;;;;;;;3.20;3.10;;;27.30;52.70;;;;;;6256703;28;20296;-80
2023/07/12 11:16:13;;;;;;;2.70;2.60;;;27.30;52.20;;;;;;6259751;28;20319;-82
2023/07/12 11:19:44;;;;;;;3.13;3.03;;;27.30;52.50;;;;;;6266261;28;20264;-82
2023/07/12 11:22:59;;;;;;;3.00;2.90;;;27.10;52.90;;;;;;6247678;28;20608;-82
2023/07/12 11:26:19;;;;;;;2.97;2.70;;;26.90;53.10;;;;;;6269346;28;20833;-82
2023/07/12 11:29:32;;;;;;;2.70;2.50;;;27.10;52.00;;;;;;6252162;28;20246;-81
2023/07/12 11:32:38;;;;;;;2.30;2.30;;;27.10;51.40;;;;;;6265537;28;20284;-83
2023/07/12 11:35:47;;;;;;;2.80;2.70;;;27.10;50.60;;;;;;6258647;28;20241;-83
2023/07/12 11:38:51;;;;;;;2.60;2.43;;;27.20;50.50;;;;;;6269500;28;20755;-81
2023/07/12 11:41:57;;;;;;;2.50;2.40;;;27.00;49.70;;;;;;6259297;28;20594;-84
2023/07/12 11:45:02;;;;;;;2.70;2.60;;;26.60;50.70;;;;;;6286344;28;20240;-79
2023/07/12 11:48:09;;;;;;;2.70;2.50;;;26.50;51.30;;;;;;6265296;28;20239;-82
2023/07/12 11:51:20;;;;;;;2.23;2.17;;;26.60;51.00;;;;;;6259536;28;20241;-84
2023/07/12 11:54:27;;;;;;;2.77;2.67;;;26.40;50.90;;;;;;6267584;28;20231;-82
2023/07/12 11:57:39;;;;;;;2.90;2.70;;;26.40;51.10;;;;;;6262307;28;20253;-84
2023/07/12 12:00:45;;;;;;;2.77;2.67;;;26.80;50.40;;;;;;6263504;28;20852;-85
2023/07/12 12:03:52;;;;;;;2.13;2.00;;;26.90;50.70;;;;;;6270336;28;20234;-83
2023/07/12 12:06:59;;;;;;;2.60;2.40;;;27.00;51.30;;;;;;6305306;28;20221;-85
2023/07/12 12:10:03;;;;;;;4.73;2.60;;;27.30;50.00;;;;;;6329437;28;20298;-83
2023/07/12 12:13:29;;;;;;;2.43;2.40;;;27.40;49.80;;;;;;6323175;28;20222;-83
2023/07/12 12:16:32;;;;;;;2.70;2.60;;;27.50;49.30;;;;;;6314602;28;20639;-83
2023/07/12 12:19:36;;;;;;;2.63;2.40;;;27.50;49.20;;;;;;6321808;28;20314;-84
2023/07/12 12:22:41;;;;;;;2.53;2.43;;;27.80;49.40;;;;;;6321918;28;20212;-84
2023/07/12 12:25:48;;;;;;;2.53;2.43;;;27.90;48.80;;;;;;6325051;28;20225;-82
2023/07/12 12:28:56;;;;;;;2.43;2.33;;;28.10;49.40;;;;;;6323383;28;20240;-82
2023/07/12 12:32:04;;;;;;;3.80;2.17;;;28.30;47.90;;;;;;6314808;28;20245;-82
2023/07/12 12:35:13;;;;;;;2.27;2.17;;;28.20;47.20;;;;;;6326970;28;20240;-81
2023/07/12 12:38:21;;;;;;;2.13;2.03;;;28.10;46.60;;;;;;6290649;28;20230;-80
2023/07/12 12:41:31;;;;;;;1.80;1.70;;;27.90;47.40;;;;;;6281085;28;20237;-85
2023/07/12 12:44:37;;;;;;;2.10;2.00;;;27.90;47.30;;;;;;6297517;28;20737;-81
2023/07/12 12:47:42;;;;;;;2.23;2.03;;;27.90;46.90;;;;;;6273553;28;20320;-82
2023/07/12 12:50:57;;;;;;;2.03;1.80;;;27.80;46.90;;;;;;6274466;28;20312;-82
2023/07/12 12:54:21;;;;;;;3.60;2.20;;;27.80;47.40;;;;;;6258548;28;20311;-83
2023/07/12 12:57:25;;;;;;;2.30;2.23;;;28.00;46.90;;;;;;6261430;28;20231;-82
2023/07/12 13:00:32;;;;;;;3.43;2.03;;;28.30;47.30;;;;;;6252204;28;20303;-84
2023/07/12 13:03:38;;;;;;;2.27;2.17;;;28.30;46.80;;;;;;6263422;28;20615;-82
2023/07/12 13:06:44;;;;;;;1.80;1.77;;;27.70;47.20;;;;;;6268820;28;20230;-82
2023/07/12 13:09:48;;;;;;;1.80;1.80;;;27.70;47.00;;;;;;6263059;28;20248;-82
2023/07/12 13:12:53;;;;;;;3.70;1.90;;;27.80;47.10;;;;;;6260100;28;20229;-86
2023/07/12 13:16:22;;;;;;;2.07;1.97;;;27.90;46.60;;;;;;6266141;28;20335;-84
2023/07/12 13:19:28;;;;;;;1.67;1.60;;;27.50;46.60;;;;;;6273177;28;20234;-85
2023/07/12 13:22:33;;;;;;;1.90;1.90;;;27.30;46.90;;;;;;6256596;28;20741;-86
2023/07/12 13:25:41;;;;;;;2.00;1.77;;;27.30;47.50;;;;;;6292318;28;20241;-84
2023/07/12 13:28:45;;;;;;;2.13;2.03;;;27.50;47.20;;;;;;6290215;28;20232;-82
2023/07/12 13:31:49;;;;;;;2.20;2.00;;;28.00;46.90;;;;;;6289805;28;20247;-85
2023/07/12 13:34:54;;;;;;;1.90;1.80;;;28.10;46.80;;;;;;6301379;28;20229;-83
2023/07/12 13:38:00;;;;;;;2.17;2.07;;;28.30;46.80;;;;;;6299981;28;20253;-82
2023/07/12 13:41:06;;;;;;;1.90;1.90;;;28.10;46.50;;;;;;6304997;28;20232;-83
2023/07/12 13:44:13;;;;;;;1.83;1.83;;;28.10;46.70;;;;;;6306603;28;20246;-83
2023/07/12 13:47:24;;;;;;;2.73;2.03;;;28.30;46.40;;;;;;6306725;28;20224;-83
2023/07/12 13:50:30;;;;;;;1.90;1.80;;;28.10;45.60;;;;;;6295511;28;20240;-81
2023/07/12 13:53:33;;;;;;;1.80;1.80;;;27.90;45.20;;;;;;6302222;28;20222;-83
2023/07/12 13:56:36;;;;;;;1.70;1.70;;;27.80;46.50;;;;;;6300391;28;20214;-84
2023/07/12 13:59:44;;;;;;;1.43;1.43;;;28.00;46.80;;;;;;6302216;28;20260;-80
2023/07/12 14:02:52;;;;;;;1.83;1.50;;;28.20;46.00;;;;;;6297054;28;20231;-84
2023/07/12 14:06:12;;;;;;;1.63;1.63;;;28.20;46.10;;;;;;6295224;28;20248;-83
2023/07/12 14:09:35;;;;;;;1.80;1.70;;;28.10;46.10;;;;;;6289454;28;20690;-83
2023/07/12 14:12:38;;;;;;;2.07;1.60;;;27.90;45.60;;;;;;6260285;28;20373;-83
2023/07/12 14:15:41;;;;;;;1.93;1.90;;;27.70;45.90;;;;;;6278244;28;20313;-82
2023/07/12 14:18:46;;;;;;;1.50;1.50;;;27.80;45.90;;;;;;6273782;28;20250;-81
2023/07/12 14:21:49;;;;;;;2.93;1.80;;;27.70;44.90;;;;;;6283129;28;20753;-83
2023/07/12 14:24:53;;;;;;;1.80;1.77;;;27.80;45.50;;;;;;6261575;28;20817;-84
2023/07/12 14:28:00;;;;;;;2.57;1.70;;;27.90;45.50;;;;;;6253816;28;20257;-84
2023/07/12 14:31:13;;;;;;;1.63;1.60;;;27.90;44.80;;;;;;6272902;28;20233;-83
2023/07/12 14:34:18;;;;;;;2.17;2.07;;;27.90;45.10;;;;;;6261800;28;20253;-83
2023/07/12 14:37:23;;;;;;;1.63;1.63;;;27.90;44.30;;;;;;6263550;28;20757;-83
2023/07/12 14:40:28;;;;;;;1.60;1.60;;;28.00;44.80;;;;;;6256488;28;20796;-83
2023/07/12 14:43:32;;;;;;;1.70;1.70;;;28.00;44.70;;;;;;6256775;28;20252;-83
2023/07/12 14:46:35;;;;;;;1.80;1.70;;;28.10;44.40;;;;;;6253344;28;20748;-82
2023/07/12 14:49:40;;;;;;;2.13;1.80;;;28.00;44.60;;;;;;6263404;28;20448;-82
2023/07/12 14:52:44;;;;;;;1.80;1.70;;;27.40;44.90;;;;;;6258057;28;20231;-82
2023/07/12 14:55:47;;;;;;;1.87;1.87;;;27.30;44.90;;;;;;6251382;28;20238;-84
2023/07/12 14:58:50;;;;;;;1.73;1.63;;;27.30;44.80;;;;;;6254438;28;20238;-82
2023/07/12 15:01:54;;;;;;;2.13;1.93;;;27.40;44.90;;;;;;6259685;28;20248;-85
2023/07/12 15:05:00;;;;;;;2.00;1.90;;;27.50;44.40;;;;;;6256429;28;20231;-83
2023/07/12 15:08:03;;;;;;;2.07;1.97;;;27.30;45.10;;;;;;6269807;28;20229;-83
2023/07/12 15:11:15;;;;;;;2.00;1.90;;;27.40;44.20;;;;;;6260337;28;20231;-84
2023/07/12 15:14:20;;;;;;;2.23;2.13;;;27.40;44.70;;;;;;6257082;28;20230;-84
2023/07/12 15:17:24;;;;;;;2.17;2.07;;;27.30;44.40;;;;;;6265321;28;20235;-80
2023/07/12 15:20:29;;;;;;;2.00;2.00;;;27.40;44.40;;;;;;6270612;28;20246;-82
2023/07/12 15:23:33;;;;;;;2.53;2.33;;;27.50;44.10;;;;;;6252838;28;20274;-82
2023/07/12 15:26:37;;;;;;;1.90;1.80;;;27.20;44.40;;;;;;6243215;28;20241;-81
2023/07/12 15:29:43;;;;;;;2.53;2.43;;;26.90;44.40;;;;;;6256934;28;20890;-81
2023/07/12 15:32:46;;;;;;;2.07;1.93;;;26.80;44.80;;;;;;6254364;28;20682;-76
2023/07/12 15:35:51;;;;;;;2.10;2.00;;;27.00;44.00;;;;;;6257067;28;20269;-77
2023/07/12 15:38:54;;;;;;;2.00;2.00;;;27.10;44.60;;;;;;6262707;28;20255;-75
2023/07/12 15:41:57;;;;;;;2.30;2.00;;;27.20;43.10;;;;;;6249110;28;20730;-74
2023/07/12 15:45:00;;;;;;;2.23;2.23;;;27.10;43.00;;;;;;6247747;28;20233;-78
2023/07/12 15:48:06;;;;;;;2.80;2.67;;;27.00;43.00;;;;;;6261544;28;20265;-75
2023/07/12 15:51:18;;;;;;;2.93;2.83;;;26.90;43.00;;;;;;6258164;28;20244;-76
2023/07/12 15:54:26;;;;;;;3.17;2.93;;;26.90;43.10;;;;;;6266295;28;20230;-77
2023/07/12 15:57:32;;;;;;;3.07;2.87;;;26.90;43.40;;;;;;6257463;28;20916;-75
2023/07/12 16:00:35;;;;;;;2.33;2.33;;;26.80;43.60;;;;;;6258112;28;20230;-76
2023/07/12 16:03:38;;;;;;;5.90;2.70;;;27.00;44.00;;;;;;6250073;28;20244;-76